Time;durP1;ratioP1;P1;durP2;ratioP2;P2;SDS_P1;SDS_P2;PMS_P1;PMS_P2;Temp;Humidity;BMP_temperature;BMP_pressure;BME280_temperature;BME280_humidity;BME280_pressure;Samples;Min_cycle;Max_cycle;Signal;HPM_P1;HPM_P2
2022/01/21 00:00:21;;;;;;;32.85;17.15;;;1.60;83.70;;;;;;5058889;28;20039;-36
2022/01/21 00:02:47;;;;;;;32.58;17.77;;;1.60;83.60;;;;;;5059124;28;20078;-40
2022/01/21 00:05:13;;;;;;;31.92;17.55;;;1.70;83.60;;;;;;5058435;28;20510;-36
2022/01/21 00:07:38;;;;;;;34.20;18.52;;;1.70;83.60;;;;;;5058956;28;20112;-33
2022/01/21 00:10:07;;;;;;;33.53;17.50;;;1.70;83.60;;;;;;5058818;28;20029;-34
2022/01/21 00:12:34;;;;;;;35.88;18.33;;;1.70;83.70;;;;;;5058677;28;20112;-33
2022/01/21 00:14:59;;;;;;;35.28;17.13;;;1.70;83.60;;;;;;5058807;28;20032;-37
2022/01/21 00:17:25;;;;;;;30.65;16.80;;;1.70;83.50;;;;;;5058592;28;20108;-36
2022/01/21 00:30:03;;;;;;;32.60;16.85;;;1.70;83.50;;;;;;5058762;28;20029;-37
2022/01/21 00:30:48;;;;;;;35.10;17.23;;;1.80;83.10;;;;;;5058143;28;20390;-37
2022/01/21 00:33:14;;;;;;;35.80;19.13;;;1.80;83.20;;;;;;5058421;28;20033;-39
2022/01/21 00:35:40;;;;;;;38.38;18.58;;;1.80;83.20;;;;;;5057953;28;20028;-37
2022/01/21 00:38:05;;;;;;;33.42;17.08;;;1.80;83.20;;;;;;5058235;28;20025;-39
2022/01/21 00:40:33;;;;;;;33.17;17.90;;;1.90;83.20;;;;;;5058189;28;20413;-37
2022/01/21 00:43:43;;;;;;;36.30;18.48;;;1.90;83.10;;;;;;5058130;28;20029;-35
2022/01/21 00:45:52;;;;;;;35.35;17.75;;;1.90;83.00;;;;;;5056307;28;20037;-37
2022/01/21 00:48:18;;;;;;;42.53;20.50;;;1.90;83.10;;;;;;5058305;28;20368;-38
2022/01/21 00:50:44;;;;;;;41.83;21.33;;;1.90;83.30;;;;;;5058003;28;20086;-34
2022/01/21 00:53:09;;;;;;;36.55;18.45;;;1.90;83.50;;;;;;5058263;28;20021;-36
2022/01/21 00:55:35;;;;;;;35.92;19.23;;;1.90;83.60;;;;;;5057684;28;20033;-34
2022/01/21 00:58:01;;;;;;;38.47;19.98;;;1.90;83.50;;;;;;5057418;28;20032;-39
2022/01/21 01:00:27;;;;;;;37.60;18.55;;;2.00;83.50;;;;;;5057759;28;20047;-35
2022/01/21 01:02:52;;;;;;;38.70;20.58;;;2.00;83.30;;;;;;5057655;28;20025;-39
2022/01/21 01:05:18;;;;;;;40.50;19.88;;;2.00;83.30;;;;;;5057140;28;20119;-39
2022/01/21 01:07:44;;;;;;;39.25;21.58;;;2.00;83.40;;;;;;5057578;28;20344;-38
2022/01/21 01:10:19;;;;;;;42.83;21.08;;;2.10;83.50;;;;;;5057816;28;20136;-40
2022/01/21 01:20:39;;;;;;;29.25;16.45;;;2.10;83.20;;;;;;5057357;28;20348;-34
2022/01/21 01:28:53;;;;;;;33.58;16.65;;;2.20;83.10;;;;;;5055419;28;20075;-40
2022/01/21 01:31:19;;;;;;;28.73;15.05;;;2.20;83.00;;;;;;5056100;28;20473;-41
2022/01/21 01:33:44;;;;;;;28.00;15.65;;;2.20;83.00;;;;;;5057584;28;20040;-39
2022/01/21 01:36:10;;;;;;;26.58;14.35;;;2.20;82.90;;;;;;5057023;28;20055;-36
2022/01/21 01:38:59;;;;;;;25.42;13.57;;;2.20;82.70;;;;;;5057070;28;20041;-41
2022/01/21 01:41:32;;;;;;;21.23;12.43;;;2.20;82.80;;;;;;5056693;28;20037;-35
2022/01/21 01:49:37;;;;;;;22.80;11.18;;;2.20;81.20;;;;;;5056832;28;20044;-34
2022/01/21 01:52:06;;;;;;;20.10;10.02;;;2.10;81.00;;;;;;5056758;28;20118;-34
2022/01/21 01:54:33;;;;;;;19.58;10.65;;;2.10;80.60;;;;;;5056914;28;20033;-41
2022/01/21 01:56:59;;;;;;;17.98;9.52;;;2.10;80.20;;;;;;5056783;28;20059;-35
2022/01/21 01:59:25;;;;;;;16.60;8.68;;;2.10;79.90;;;;;;5056841;28;20430;-35
2022/01/21 02:02:00;;;;;;;13.52;8.00;;;2.10;79.40;;;;;;5056898;28;20414;-34
2022/01/21 02:04:26;;;;;;;11.88;7.03;;;2.10;79.20;;;;;;5056362;28;20061;-39
2022/01/21 02:06:52;;;;;;;13.05;6.75;;;2.00;78.50;;;;;;5056084;28;20031;-35
2022/01/21 02:09:19;;;;;;;12.43;6.75;;;2.00;77.90;;;;;;5055919;28;20390;-39
2022/01/21 02:11:45;;;;;;;11.60;6.20;;;2.00;78.10;;;;;;5056763;28;20362;-37
2022/01/21 02:14:15;;;;;;;10.98;6.43;;;1.90;77.50;;;;;;5056729;28;20049;-34
2022/01/21 02:22:06;;;;;;;8.85;5.25;;;1.80;76.90;;;;;;5056550;28;20051;-39
2022/01/21 02:24:46;;;;;;;9.98;5.28;;;1.80;76.70;;;;;;5056348;28;20067;-40
2022/01/21 02:27:12;;;;;;;7.32;4.00;;;1.70;76.30;;;;;;5056491;28;20368;-38
2022/01/21 02:29:46;;;;;;;9.43;4.15;;;1.70;76.00;;;;;;5055232;28;20037;-38
2022/01/21 02:32:12;;;;;;;7.22;3.85;;;1.70;75.30;;;;;;5055013;28;20135;-37
2022/01/21 02:34:38;;;;;;;7.60;3.80;;;1.60;74.70;;;;;;5056341;28;20060;-41
2022/01/21 02:37:04;;;;;;;8.25;3.97;;;1.60;74.30;;;;;;5056268;28;20032;-35
2022/01/21 02:39:30;;;;;;;8.73;3.90;;;1.60;74.10;;;;;;5056154;28;20077;-38
2022/01/21 02:41:55;;;;;;;7.82;3.70;;;1.50;73.80;;;;;;5056363;28;20044;-38
2022/01/21 02:44:22;;;;;;;13.82;3.63;;;1.50;73.60;;;;;;5056039;28;20055;-36
2022/01/21 02:46:54;;;;;;;5.80;3.20;;;1.50;73.50;;;;;;5055550;28;20294;-35
2022/01/21 02:49:20;;;;;;;7.40;3.40;;;1.40;73.00;;;;;;5055983;28;20029;-40
2022/01/21 02:51:45;;;;;;;7.15;3.40;;;1.40;72.90;;;;;;5055556;28;20086;-36
2022/01/21 02:54:11;;;;;;;7.57;3.45;;;1.40;73.10;;;;;;5055959;28;20052;-35
2022/01/21 02:56:38;;;;;;;10.45;3.22;;;1.30;73.50;;;;;;5055972;28;20088;-34
2022/01/21 02:59:05;;;;;;;6.25;3.40;;;1.30;72.70;;;;;;5055889;28;20029;-34
2022/01/21 03:01:33;;;;;;;8.13;3.85;;;1.30;72.50;;;;;;5055781;28;20033;-39
2022/01/21 03:03:59;;;;;;;8.48;3.53;;;1.30;72.50;;;;;;5055861;28;20053;-38
2022/01/21 03:06:26;;;;;;;8.38;3.90;;;1.20;72.50;;;;;;5055465;28;20335;-38
2022/01/21 03:08:53;;;;;;;8.05;3.58;;;1.20;72.50;;;;;;5056109;28;20287;-41
2022/01/21 03:11:21;;;;;;;6.30;3.35;;;1.20;72.40;;;;;;5055467;28;20113;-41
2022/01/21 03:13:47;;;;;;;6.78;3.35;;;1.20;71.90;;;;;;5055837;28;20045;-41
2022/01/21 03:16:13;;;;;;;9.80;3.53;;;1.10;72.20;;;;;;5055704;28;20032;-40
2022/01/21 03:18:39;;;;;;;7.75;3.00;;;1.20;72.40;;;;;;5055965;28;20032;-37
2022/01/21 03:21:05;;;;;;;5.85;3.25;;;1.10;72.20;;;;;;5057397;28;20033;-36
2022/01/21 03:23:31;;;;;;;7.88;3.85;;;1.10;72.20;;;;;;5059920;28;20353;-35
2022/01/21 03:25:57;;;;;;;11.35;3.70;;;1.10;72.20;;;;;;5059414;28;20035;-35
2022/01/21 03:28:22;;;;;;;6.97;3.90;;;1.20;72.30;;;;;;5059798;28;20025;-40
2022/01/21 03:30:51;;;;;;;6.65;3.30;;;1.20;72.20;;;;;;5059285;28;20040;-38
2022/01/21 03:33:17;;;;;;;7.65;3.65;;;1.20;72.10;;;;;;5059430;28;20044;-39
2022/01/21 03:35:42;;;;;;;7.95;3.75;;;1.20;71.90;;;;;;5059335;28;20021;-35
2022/01/21 03:38:08;;;;;;;7.95;3.53;;;1.20;71.80;;;;;;5059551;28;20434;-33
2022/01/21 03:40:34;;;;;;;7.65;3.47;;;1.20;71.70;;;;;;5059088;28;20025;-37
2022/01/21 03:42:59;;;;;;;6.82;3.80;;;1.20;71.50;;;;;;5059478;28;20028;-34
2022/01/21 03:45:25;;;;;;;4.68;3.20;;;1.20;71.30;;;;;;5058934;28;20033;-34
2022/01/21 03:47:52;;;;;;;8.60;3.30;;;1.20;71.20;;;;;;5059160;28;20031;-38
2022/01/21 03:50:29;;;;;;;7.53;3.38;;;1.20;71.10;;;;;;5058779;28;20369;-39
2022/01/21 03:52:55;;;;;;;6.20;3.30;;;1.20;71.00;;;;;;5059316;28;20029;-34
2022/01/21 03:55:21;;;;;;;8.05;3.33;;;1.10;70.80;;;;;;5058701;28;20102;-34
2022/01/21 03:57:48;;;;;;;8.55;3.38;;;1.10;70.80;;;;;;5058993;28;20114;-33
2022/01/21 04:00:18;;;;;;;7.03;3.30;;;1.00;70.80;;;;;;5059210;28;20037;-33
2022/01/21 04:02:44;;;;;;;6.05;2.92;;;1.00;70.60;;;;;;5059274;28;20079;-37
2022/01/21 04:05:10;;;;;;;7.28;3.67;;;0.90;70.60;;;;;;5058398;28;20045;-39
2022/01/21 04:07:37;;;;;;;7.47;3.30;;;0.90;70.60;;;;;;5058784;28;20022;-40
2022/01/21 04:10:05;;;;;;;4.35;2.83;;;0.90;70.60;;;;;;5058832;28;20053;-38
2022/01/21 04:12:30;;;;;;;10.05;3.45;;;0.80;70.60;;;;;;5059101;28;20031;-34
2022/01/21 04:14:58;;;;;;;7.22;3.20;;;0.80;70.50;;;;;;5058938;28;20493;-35
2022/01/21 04:17:24;;;;;;;6.95;3.28;;;0.80;70.40;;;;;;5058923;28;20299;-38
2022/01/21 04:19:50;;;;;;;8.25;3.28;;;0.70;70.40;;;;;;5058705;28;20060;-34
2022/01/21 04:22:16;;;;;;;10.25;3.80;;;0.70;70.50;;;;;;5058572;28;20065;-37
2022/01/21 04:24:44;;;;;;;5.53;3.03;;;0.70;70.60;;;;;;5058609;28;20060;-40
2022/01/21 04:27:10;;;;;;;8.15;3.22;;;0.60;70.40;;;;;;5058579;28;20299;-35
2022/01/21 04:29:36;;;;;;;5.45;2.90;;;0.60;70.40;;;;;;5058588;28;20044;-37
2022/01/21 04:32:02;;;;;;;9.57;3.15;;;0.60;70.20;;;;;;5057680;28;20017;-40
2022/01/21 04:34:27;;;;;;;4.40;2.78;;;0.50;69.90;;;;;;5058505;28;20040;-40
2022/01/21 04:36:53;;;;;;;6.45;3.10;;;0.50;69.80;;;;;;5058338;28;20123;-34
2022/01/21 04:39:26;;;;;;;8.30;3.35;;;0.40;69.70;;;;;;5058332;28;20239;-34
2022/01/21 04:47:18;;;;;;;7.80;3.47;;;0.40;69.80;;;;;;5058204;28;20326;-39
2022/01/21 04:49:46;;;;;;;5.60;2.88;;;0.40;69.80;;;;;;5058312;28;20028;-34
2022/01/21 04:52:12;;;;;;;6.88;3.33;;;0.30;69.60;;;;;;5058229;28;20048;-36
2022/01/21 04:54:37;;;;;;;5.63;3.05;;;0.30;69.60;;;;;;5057971;28;20163;-35
2022/01/21 04:57:05;;;;;;;4.95;3.15;;;0.20;69.20;;;;;;5057877;28;20065;-34
2022/01/21 04:59:31;;;;;;;10.10;3.58;;;0.20;69.20;;;;;;5057926;28;20096;-34
2022/01/21 05:01:57;;;;;;;11.10;4.00;;;0.20;69.00;;;;;;5058052;28;20041;-34
2022/01/21 05:04:22;;;;;;;8.52;3.42;;;0.10;69.00;;;;;;5057345;28;20103;-35
2022/01/21 05:06:50;;;;;;;5.93;3.15;;;0.10;68.90;;;;;;5057701;28;20163;-39
2022/01/21 05:09:17;;;;;;;6.05;3.35;;;0.10;69.00;;;;;;5057683;28;20033;-40
2022/01/21 05:11:47;;;;;;;9.60;3.65;;;0.10;68.80;;;;;;5057806;28;20148;-39
2022/01/21 05:14:25;;;;;;;8.23;4.00;;;0.00;68.60;;;;;;5057620;28;20045;-34
2022/01/21 05:17:00;;;;;;;7.30;3.45;;;0.00;68.30;;;;;;5057536;28;20307;-36
2022/01/21 05:19:27;;;;;;;9.85;4.22;;;-0.10;68.20;;;;;;5057628;28;20041;-39
2022/01/21 05:21:53;;;;;;;6.78;4.13;;;-0.10;68.20;;;;;;5057323;28;20029;-39
2022/01/21 05:24:21;;;;;;;9.48;3.75;;;-0.10;68.10;;;;;;5057435;28;20036;-39
2022/01/21 05:26:56;;;;;;;9.40;3.45;;;-0.20;68.00;;;;;;5057341;28;20036;-34
2022/01/21 05:29:24;;;;;;;8.65;3.30;;;-0.20;68.00;;;;;;5057243;28;20353;-40
2022/01/21 05:31:50;;;;;;;6.35;3.55;;;-0.20;67.90;;;;;;5057055;28;20112;-40
2022/01/21 05:34:16;;;;;;;6.22;2.95;;;-0.30;68.00;;;;;;5057365;28;20567;-37
2022/01/21 05:36:41;;;;;;;13.07;3.75;;;-0.30;67.90;;;;;;5057261;28;20313;-34
2022/01/21 05:39:08;;;;;;;11.68;3.85;;;-0.30;67.80;;;;;;5057356;28;20113;-34
2022/01/21 05:41:34;;;;;;;6.68;3.33;;;-0.30;67.80;;;;;;5056876;28;20052;-34
2022/01/21 05:44:07;;;;;;;8.27;3.60;;;-0.30;67.60;;;;;;5056244;28;20107;-39
2022/01/21 05:49:01;;;;;;;6.45;3.28;;;-0.30;67.70;;;;;;5057259;28;20028;-35
2022/01/21 05:51:27;;;;;;;8.55;3.45;;;-0.30;67.60;;;;;;5056723;28;20120;-34
2022/01/21 05:53:52;;;;;;;8.20;3.45;;;-0.40;67.50;;;;;;5057021;28;20083;-38
2022/01/21 05:56:23;;;;;;;6.53;3.22;;;-0.40;67.50;;;;;;5056359;28;20056;-35
2022/01/21 05:58:49;;;;;;;11.30;4.47;;;-0.30;67.40;;;;;;5056852;28;20025;-38
2022/01/21 06:01:15;;;;;;;6.80;3.55;;;-0.40;67.40;;;;;;5056577;28;20090;-39
2022/01/21 06:03:40;;;;;;;8.00;4.00;;;-0.40;67.20;;;;;;5056332;28;20028;-34
2022/01/21 06:06:06;;;;;;;45.22;21.52;;;-0.40;67.30;;;;;;5055840;28;20029;-38
2022/01/21 06:08:32;;;;;;;16.98;6.80;;;-0.40;67.20;;;;;;5056285;28;20025;-39
2022/01/21 06:10:57;;;;;;;9.27;4.43;;;-0.40;67.20;;;;;;5055821;28;20025;-38
2022/01/21 06:13:23;;;;;;;12.65;5.47;;;-0.40;67.30;;;;;;5056403;28;20107;-36
2022/01/21 06:15:49;;;;;;;21.05;6.00;;;-0.40;67.30;;;;;;5056064;28;20451;-34
2022/01/21 06:18:15;;;;;;;18.02;7.75;;;-0.50;67.00;;;;;;5056219;28;20093;-38
2022/01/21 06:20:42;;;;;;;13.63;5.55;;;-0.50;67.10;;;;;;5055987;28;20033;-38
2022/01/21 06:23:08;;;;;;;9.82;5.25;;;-0.50;67.00;;;;;;5055972;28;20033;-41
2022/01/21 06:25:33;;;;;;;8.88;4.53;;;-0.40;67.20;;;;;;5055635;28;20090;-35
2022/01/21 06:28:00;;;;;;;11.02;4.00;;;-0.40;67.20;;;;;;5055778;28;20017;-34
2022/01/21 06:30:25;;;;;;;15.15;6.90;;;-0.40;67.10;;;;;;5055557;28;20036;-39
2022/01/21 06:32:51;;;;;;;10.25;4.55;;;-0.40;67.10;;;;;;5055794;28;20410;-42
2022/01/21 06:35:16;;;;;;;10.45;4.45;;;-0.40;67.30;;;;;;5055584;28;20112;-35
2022/01/21 06:37:42;;;;;;;12.32;4.55;;;-0.40;67.10;;;;;;5056149;28;20025;-39
2022/01/21 06:40:09;;;;;;;13.18;5.53;;;-0.40;67.00;;;;;;5055865;28;20036;-35
2022/01/21 06:42:36;;;;;;;7.72;4.22;;;-0.40;66.90;;;;;;5055855;28;20037;-36
2022/01/21 06:45:03;;;;;;;9.07;4.38;;;-0.40;66.80;;;;;;5055702;28;20056;-34
2022/01/21 06:47:29;;;;;;;9.73;4.45;;;-0.30;67.00;;;;;;5055491;28;20087;-34
2022/01/21 06:49:58;;;;;;;9.15;5.07;;;-0.30;66.60;;;;;;5055749;28;20090;-34
2022/01/21 06:52:28;;;;;;;9.13;4.30;;;-0.30;66.80;;;;;;5055698;28;20029;-41
2022/01/21 06:54:54;;;;;;;9.23;3.92;;;-0.30;66.80;;;;;;5055339;28;20314;-34
2022/01/21 06:57:20;;;;;;;10.60;4.55;;;-0.30;66.70;;;;;;5055813;28;20033;-34
2022/01/21 06:59:47;;;;;;;9.75;4.43;;;-0.20;66.70;;;;;;5055714;28;20159;-38
2022/01/21 07:02:13;;;;;;;9.60;3.97;;;-0.20;66.80;;;;;;5055867;28;20094;-36
2022/01/21 07:04:38;;;;;;;12.88;5.70;;;-0.20;66.50;;;;;;5055063;28;20045;-37
2022/01/21 07:07:04;;;;;;;7.75;3.85;;;-0.10;66.60;;;;;;5055115;28;20033;-36
2022/01/21 07:09:30;;;;;;;11.65;4.38;;;-0.10;66.60;;;;;;5055259;28;20108;-41
2022/01/21 07:11:56;;;;;;;13.80;5.45;;;-0.10;66.60;;;;;;5055353;28;20025;-37
2022/01/21 07:14:22;;;;;;;11.65;4.65;;;0.00;66.70;;;;;;5055479;28;20031;-38
2022/01/21 07:16:48;;;;;;;10.88;4.72;;;0.00;66.50;;;;;;5055005;28;20071;-39
2022/01/21 07:19:14;;;;;;;14.18;3.97;;;0.00;66.70;;;;;;5055384;28;20075;-39
2022/01/21 07:21:41;;;;;;;10.43;4.15;;;0.10;66.20;;;;;;5055256;28;20029;-38
2022/01/21 07:24:07;;;;;;;9.75;4.43;;;0.10;66.10;;;;;;5055492;28;20036;-36
2022/01/21 07:26:32;;;;;;;10.25;4.60;;;0.10;66.10;;;;;;5055378;28;20410;-37
2022/01/21 07:28:59;;;;;;;7.53;3.63;;;0.20;66.40;;;;;;5055735;28;20035;-35
2022/01/21 07:31:26;;;;;;;6.15;3.30;;;0.20;66.30;;;;;;5054797;28;20041;-37
2022/01/21 07:33:52;;;;;;;10.82;4.13;;;0.30;65.90;;;;;;5055459;28;20083;-34
2022/01/21 07:36:18;;;;;;;8.02;3.60;;;0.30;65.80;;;;;;5055016;28;20051;-34
2022/01/21 07:38:43;;;;;;;10.00;4.18;;;0.40;65.80;;;;;;5055229;28;20033;-37
2022/01/21 07:41:09;;;;;;;7.72;4.60;;;0.40;65.70;;;;;;5054876;28;20091;-39
2022/01/21 07:43:35;;;;;;;10.68;3.97;;;0.50;65.20;;;;;;5055071;28;20040;-37
2022/01/21 07:46:01;;;;;;;9.13;4.20;;;0.50;65.00;;;;;;5054476;28;20033;-35
2022/01/21 07:48:26;;;;;;;10.82;4.60;;;0.60;65.10;;;;;;5055164;28;20098;-40
2022/01/21 07:50:52;;;;;;;9.85;4.75;;;0.60;65.30;;;;;;5054878;28;20082;-38
2022/01/21 07:53:18;;;;;;;6.32;3.38;;;0.60;65.00;;;;;;5055073;28;20452;-39
2022/01/21 07:55:44;;;;;;;9.50;4.05;;;0.70;65.40;;;;;;5055032;28;20037;-41
2022/01/21 07:58:11;;;;;;;10.45;4.78;;;0.70;64.70;;;;;;5054911;28;20422;-39
2022/01/21 08:00:37;;;;;;;9.45;3.95;;;0.70;64.40;;;;;;5054878;28;20360;-37
2022/01/21 08:03:04;;;;;;;7.75;3.65;;;0.60;64.50;;;;;;5054826;28;20430;-34
2022/01/21 08:05:33;;;;;;;9.07;4.32;;;0.70;64.60;;;;;;5054272;28;20061;-36
2022/01/21 08:07:59;;;;;;;10.35;5.10;;;0.60;64.80;;;;;;5056310;28;20033;-34
2022/01/21 08:10:25;;;;;;;10.95;4.75;;;0.70;64.90;;;;;;5058400;28;20029;-39
2022/01/21 08:12:50;;;;;;;11.65;4.43;;;0.70;65.00;;;;;;5058413;28;20025;-39
2022/01/21 08:15:16;;;;;;;9.63;4.38;;;0.80;65.00;;;;;;5058479;28;20303;-34
2022/01/21 08:17:42;;;;;;;10.55;4.55;;;0.90;64.80;;;;;;5058544;28;20037;-36
2022/01/21 08:20:08;;;;;;;17.65;5.55;;;0.90;64.90;;;;;;5055155;28;20122;-36
2022/01/21 08:22:34;;;;;;;11.88;4.40;;;1.00;64.70;;;;;;5058470;28;20037;-35
2022/01/21 08:25:00;;;;;;;12.80;4.78;;;1.00;64.50;;;;;;5052148;28;20033;-41
2022/01/21 08:27:26;;;;;;;8.70;3.75;;;1.10;64.20;;;;;;5043192;28;20064;-41
2022/01/21 08:29:51;;;;;;;10.70;4.15;;;1.10;63.90;;;;;;5057978;28;20040;-39
2022/01/21 08:32:18;;;;;;;17.80;4.97;;;1.10;63.80;;;;;;5057750;28;20105;-40
2022/01/21 08:34:43;;;;;;;7.25;4.38;;;1.20;64.00;;;;;;5057839;28;20468;-40
2022/01/21 08:37:10;;;;;;;10.40;5.55;;;1.20;64.10;;;;;;5057789;28;20111;-38
2022/01/21 08:39:35;;;;;;;14.27;5.20;;;1.30;63.90;;;;;;5057978;28;20156;-39
2022/01/21 08:42:03;;;;;;;11.23;4.00;;;1.30;63.80;;;;;;5057415;28;20063;-35
2022/01/21 08:44:29;;;;;;;6.68;3.50;;;1.30;63.60;;;;;;5057891;28;20043;-35
2022/01/21 08:46:54;;;;;;;9.95;4.07;;;1.40;63.50;;;;;;5057600;28;20112;-34
2022/01/21 08:49:21;;;;;;;9.55;4.70;;;1.40;63.20;;;;;;5057460;28;20072;-39
2022/01/21 08:51:52;;;;;;;12.60;4.38;;;1.40;63.10;;;;;;5057813;28;20033;-34
2022/01/21 08:54:19;;;;;;;9.07;4.15;;;1.40;63.20;;;;;;5056120;28;20116;-35
2022/01/21 08:56:47;;;;;;;8.98;3.55;;;1.50;63.50;;;;;;5057207;28;20433;-39
2022/01/21 08:59:13;;;;;;;10.15;4.75;;;1.50;62.90;;;;;;5057663;28;20029;-40
2022/01/21 09:01:39;;;;;;;8.90;3.42;;;1.60;62.70;;;;;;5057470;28;20033;-41
2022/01/21 09:04:04;;;;;;;10.20;4.72;;;1.60;62.20;;;;;;5055788;28;20037;-35
2022/01/21 09:06:30;;;;;;;9.35;3.67;;;1.60;62.10;;;;;;5056519;28;20052;-41
2022/01/21 09:08:57;;;;;;;11.15;4.65;;;1.60;62.50;;;;;;5057569;28;20029;-36
2022/01/21 09:11:23;;;;;;;13.07;5.32;;;1.70;62.10;;;;;;5054668;28;20029;-35
2022/01/21 09:13:49;;;;;;;11.55;3.70;;;1.70;62.50;;;;;;5057647;28;20035;-36
2022/01/21 09:16:16;;;;;;;7.97;3.53;;;1.80;62.10;;;;;;5056829;28;20037;-35
2022/01/21 09:18:51;;;;;;;8.35;3.40;;;1.80;61.50;;;;;;5056849;28;20091;-39
2022/01/21 09:21:19;;;;;;;4.60;3.00;;;1.80;61.90;;;;;;5056418;28;20115;-41
2022/01/21 09:23:50;;;;;;;7.22;3.45;;;1.90;61.80;;;;;;5057114;28;20033;-34
2022/01/21 09:26:20;;;;;;;7.20;3.45;;;1.90;61.30;;;;;;5056408;28;20116;-34
2022/01/21 09:28:47;;;;;;;7.85;3.55;;;1.90;60.80;;;;;;5057117;28;20033;-35
2022/01/21 09:31:13;;;;;;;8.82;3.55;;;1.90;60.40;;;;;;5056464;28;20021;-35
2022/01/21 09:33:40;;;;;;;8.40;3.53;;;1.90;60.70;;;;;;5057022;28;20317;-36
2022/01/21 09:36:07;;;;;;;8.68;4.38;;;2.00;60.90;;;;;;5056713;28;20322;-38
2022/01/21 09:38:33;;;;;;;9.23;3.40;;;2.00;60.80;;;;;;5056949;28;20044;-40
2022/01/21 09:40:59;;;;;;;9.20;3.88;;;2.00;60.70;;;;;;5056326;28;20116;-41
2022/01/21 09:43:25;;;;;;;9.18;4.10;;;2.10;60.90;;;;;;5056844;28;20025;-39
2022/01/21 09:45:54;;;;;;;8.88;3.20;;;2.20;60.80;;;;;;5056328;28;20376;-41
2022/01/21 09:48:27;;;;;;;12.82;5.85;;;2.20;60.20;;;;;;5056633;28;20423;-35
2022/01/21 09:50:59;;;;;;;10.60;3.50;;;2.30;60.60;;;;;;5056353;28;20371;-37
2022/01/21 09:53:32;;;;;;;13.25;4.32;;;2.40;60.70;;;;;;5056789;28;20149;-38
2022/01/21 09:56:00;;;;;;;8.32;4.22;;;2.40;60.60;;;;;;5048558;28;20037;-36
2022/01/21 09:58:29;;;;;;;9.00;3.03;;;2.50;60.50;;;;;;5038969;28;20061;-37
2022/01/21 10:00:57;;;;;;;6.22;2.92;;;2.60;60.00;;;;;;5040822;28;20448;-40
2022/01/21 10:03:23;;;;;;;6.97;3.50;;;2.60;59.80;;;;;;5036327;28;20116;-39
2022/01/21 10:05:52;;;;;;;12.43;3.65;;;2.70;59.70;;;;;;5035685;28;20434;-40
2022/01/21 10:08:21;;;;;;;12.35;3.63;;;2.70;59.40;;;;;;5039850;28;20310;-35
2022/01/21 10:10:47;;;;;;;10.32;3.45;;;2.80;59.70;;;;;;5041216;28;20322;-34
2022/01/21 10:13:15;;;;;;;17.25;6.00;;;2.80;59.70;;;;;;5036127;28;20034;-35
2022/01/21 10:15:41;;;;;;;20.02;5.85;;;2.90;59.20;;;;;;5052423;28;20299;-37
2022/01/21 10:18:12;;;;;;;14.75;5.50;;;2.90;58.60;;;;;;5054355;28;20116;-38
2022/01/21 10:20:38;;;;;;;5.53;2.80;;;2.90;58.00;;;;;;5044932;28;20135;-40
2022/01/21 10:23:07;;;;;;;7.32;3.60;;;2.90;58.10;;;;;;5034902;28;20061;-36
2022/01/21 10:25:34;;;;;;;12.10;5.13;;;2.80;57.50;;;;;;5035484;28;20112;-37
2022/01/21 10:28:12;;;;;;;6.00;2.80;;;2.80;58.10;;;;;;5036613;28;20418;-35
2022/01/21 10:30:38;;;;;;;6.65;2.70;;;2.80;57.90;;;;;;5035653;28;20026;-40
2022/01/21 10:33:20;;;;;;;9.32;3.30;;;2.90;57.70;;;;;;5036594;28;20021;-40
2022/01/21 10:35:49;;;;;;;6.82;2.95;;;2.90;57.20;;;;;;5034968;28;20056;-38
2022/01/21 10:38:28;;;;;;;5.65;2.65;;;2.90;56.40;;;;;;5035724;28;20279;-39
2022/01/21 10:41:03;;;;;;;9.55;3.42;;;2.90;56.50;;;;;;5035473;28;20033;-38
2022/01/21 10:43:29;;;;;;;11.32;3.30;;;2.80;55.80;;;;;;5035495;28;20155;-34
2022/01/21 10:45:57;;;;;;;8.02;3.22;;;2.80;56.50;;;;;;5034931;28;20128;-35
2022/01/21 10:48:23;;;;;;;6.65;2.97;;;2.70;56.70;;;;;;5035959;28;20437;-34
2022/01/21 10:51:18;;;;;;;7.95;2.70;;;2.70;56.70;;;;;;5035096;28;20034;-40
2022/01/21 10:53:45;;;;;;;5.65;2.85;;;2.70;56.60;;;;;;5035963;28;20271;-32
2022/01/21 10:56:13;;;;;;;8.38;3.00;;;2.70;56.50;;;;;;5035358;28;20102;-32
2022/01/21 10:58:44;;;;;;;7.70;3.30;;;2.70;56.90;;;;;;5035755;28;20025;-33
2022/01/21 11:01:16;;;;;;;7.57;3.47;;;2.70;56.90;;;;;;5035273;28;20036;-32
2022/01/21 11:04:14;;;;;;;5.22;2.50;;;2.70;56.40;;;;;;5035528;28;20030;-33
2022/01/21 11:06:57;;;;;;;10.45;3.67;;;2.60;55.90;;;;;;5033797;28;20438;-33
2022/01/21 11:09:25;;;;;;;5.40;2.60;;;2.60;56.70;;;;;;5035693;28;20026;-32
2022/01/21 11:12:12;;;;;;;8.68;3.13;;;2.50;56.60;;;;;;5044020;28;20041;-36
2022/01/21 11:15:04;;;;;;;12.07;4.82;;;2.50;56.50;;;;;;5033939;28;20033;-34
2022/01/21 11:17:30;;;;;;;6.00;2.85;;;2.50;56.60;;;;;;5035394;28;20053;-32
2022/01/21 11:20:08;;;;;;;11.30;3.22;;;2.40;56.50;;;;;;5035559;28;20025;-31
2022/01/21 11:22:54;;;;;;;5.90;2.67;;;2.40;56.70;;;;;;5035204;28;20037;-39
2022/01/21 11:25:43;;;;;;;11.20;3.78;;;2.40;56.90;;;;;;5034516;28;20046;-41
2022/01/21 11:28:13;;;;;;;7.28;2.85;;;2.40;57.50;;;;;;5035299;28;20025;-37
2022/01/21 11:30:40;;;;;;;9.45;4.68;;;2.40;57.10;;;;;;5035116;28;20091;-37
2022/01/21 11:33:06;;;;;;;10.65;3.38;;;2.30;57.10;;;;;;5034898;28;20057;-39
2022/01/21 11:35:33;;;;;;;6.93;3.65;;;2.30;57.20;;;;;;5034896;28;20033;-39
2022/01/21 11:38:01;;;;;;;7.53;3.38;;;2.30;57.30;;;;;;5035256;28;20112;-40
2022/01/21 11:40:27;;;;;;;8.38;2.78;;;2.30;57.30;;;;;;5033974;28;20041;-41
2022/01/21 11:42:54;;;;;;;4.90;3.20;;;2.30;57.30;;;;;;5038469;28;20057;-40
2022/01/21 11:50:31;;;;;;;8.43;3.67;;;2.40;57.10;;;;;;5038861;28;20083;-38
2022/01/21 11:52:57;;;;;;;8.27;3.40;;;2.40;57.40;;;;;;5038754;28;20414;-40
2022/01/21 11:55:34;;;;;;;11.00;3.47;;;2.40;57.30;;;;;;5034531;28;20040;-39
2022/01/21 11:58:21;;;;;;;6.18;3.20;;;2.40;56.90;;;;;;5058799;28;20025;-41
2022/01/21 12:00:52;;;;;;;7.57;4.03;;;2.30;57.00;;;;;;5058094;28;20117;-40
2022/01/21 12:03:21;;;;;;;11.35;4.93;;;2.30;56.80;;;;;;5058582;28;20035;-37
2022/01/21 12:05:47;;;;;;;14.20;5.18;;;2.30;56.90;;;;;;5057475;28;20049;-40
2022/01/21 12:08:13;;;;;;;5.35;3.20;;;2.30;57.00;;;;;;5058258;28;20060;-42
2022/01/21 12:10:46;;;;;;;9.85;4.28;;;2.30;57.00;;;;;;5058091;28;20025;-41
2022/01/21 12:13:20;;;;;;;10.57;3.78;;;2.40;57.10;;;;;;5058415;28;20068;-41
2022/01/21 12:18:52;;;;;;;8.63;4.00;;;2.40;57.00;;;;;;5058275;28;20067;-35
2022/01/21 12:21:29;;;;;;;8.13;3.67;;;2.40;57.40;;;;;;5058007;28;20037;-35
2022/01/21 12:23:56;;;;;;;10.30;3.63;;;2.50;57.00;;;;;;5058272;28;20037;-37
2022/01/21 12:26:25;;;;;;;9.73;3.88;;;2.50;56.70;;;;;;5057200;28;20383;-38
2022/01/21 12:28:57;;;;;;;19.35;3.30;;;2.50;56.50;;;;;;5058077;28;20021;-38
2022/01/21 12:31:58;;;;;;;7.40;2.97;;;2.50;56.50;;;;;;5057698;28;20029;-34
2022/01/21 12:34:25;;;;;;;;;;;2.50;56.40;;;;;;5058154;28;20029;-35
2022/01/21 12:36:55;;;;;;;8.18;4.22;;;2.40;56.80;;;;;;5057468;28;19915;-35
2022/01/21 12:39:42;;;;;;;6.65;3.63;;;2.40;57.10;;;;;;5057879;28;20124;-34
2022/01/21 12:42:20;;;;;;;8.50;3.45;;;2.40;57.10;;;;;;5057411;28;20025;-35
2022/01/21 12:44:47;;;;;;;8.10;3.45;;;2.40;56.80;;;;;;5057477;28;20079;-38
2022/01/21 12:47:41;;;;;;;7.72;4.03;;;2.40;56.90;;;;;;5057207;28;20035;-35
2022/01/21 12:50:10;;;;;;;11.15;3.50;;;2.40;57.10;;;;;;5057526;28;20302;-38
2022/01/21 12:53:18;;;;;;;7.50;4.03;;;2.30;57.00;;;;;;5056803;28;20421;-38
2022/01/21 12:56:03;;;;;;;6.43;3.88;;;2.30;57.30;;;;;;5054018;28;20128;-34
2022/01/21 12:58:39;;;;;;;7.82;3.55;;;2.30;57.40;;;;;;5057702;28;20037;-35
2022/01/21 13:01:08;;;;;;;9.18;3.92;;;2.30;57.40;;;;;;5056581;28;20540;-37
2022/01/21 13:03:55;;;;;;;8.98;3.90;;;2.30;57.20;;;;;;5057243;28;20029;-35
2022/01/21 13:06:36;;;;;;;10.82;3.97;;;2.30;57.10;;;;;;5056896;28;20052;-34
2022/01/21 13:09:11;;;;;;;11.40;3.90;;;2.20;57.30;;;;;;5057370;28;20114;-34
2022/01/21 13:11:43;;;;;;;5.90;3.38;;;2.20;57.70;;;;;;5056914;28;20059;-39
2022/01/21 13:17:09;;;;;;;8.95;3.67;;;2.20;57.80;;;;;;5057209;28;20055;-33
2022/01/21 13:19:51;;;;;;;7.53;3.45;;;2.10;58.00;;;;;;5056834;28;20029;-36
2022/01/21 13:22:24;;;;;;;7.72;3.88;;;2.10;58.60;;;;;;5056578;28;20033;-34
2022/01/21 13:25:02;;;;;;;7.60;3.70;;;2.10;57.80;;;;;;5056883;28;20036;-35
2022/01/21 13:27:29;;;;;;;8.32;3.63;;;2.10;57.90;;;;;;5056871;28;20033;-38
2022/01/21 13:30:04;;;;;;;7.90;4.13;;;2.10;57.80;;;;;;5055915;28;20021;-37
2022/01/21 13:32:29;;;;;;;9.90;3.30;;;2.10;58.00;;;;;;5057016;28;20082;-37
2022/01/21 13:35:15;;;;;;;7.63;4.32;;;2.10;58.10;;;;;;5056429;28;20021;-39
2022/01/21 13:37:59;;;;;;;6.10;3.25;;;2.10;58.20;;;;;;5056603;28;20067;-39
2022/01/21 13:40:24;;;;;;;8.75;4.05;;;2.10;58.20;;;;;;5056486;28;20383;-41
2022/01/21 13:42:50;;;;;;;7.10;3.30;;;2.10;58.40;;;;;;5056710;28;20100;-35
2022/01/21 13:45:16;;;;;;;6.30;3.38;;;2.10;58.60;;;;;;5056481;28;20322;-35
2022/01/21 13:47:48;;;;;;;5.45;3.17;;;2.10;58.10;;;;;;5056451;28;20036;-37
2022/01/21 13:50:18;;;;;;;7.32;3.08;;;2.10;58.20;;;;;;5053886;28;20543;-35